sensor_id;sensor_type;location;lat;lon;timestamp;P1;durP1;ratioP1;P2;durP2;ratioP2
18042;SDS011;9146;48.074;11.968;2023-09-19T00:00:56;2.50;;;2.30;;
18042;SDS011;9146;48.074;11.968;2023-09-19T00:03:23;3.27;;;2.60;;
18042;SDS011;9146;48.074;11.968;2023-09-19T00:05:52;2.87;;;2.63;;
18042;SDS011;9146;48.074;11.968;2023-09-19T00:08:20;3.43;;;3.10;;
18042;SDS011;9146;48.074;11.968;2023-09-19T00:10:50;6.70;;;4.70;;
18042;SDS011;9146;48.074;11.968;2023-09-19T00:13:18;3.63;;;3.20;;
18042;SDS011;9146;48.074;11.968;2023-09-19T00:15:46;3.80;;;2.53;;
18042;SDS011;9146;48.074;11.968;2023-09-19T00:18:14;4.23;;;2.97;;
18042;SDS011;9146;48.074;11.968;2023-09-19T00:20:42;4.47;;;3.30;;
18042;SDS011;9146;48.074;11.968;2023-09-19T00:23:14;7.00;;;4.50;;
18042;SDS011;9146;48.074;11.968;2023-09-19T00:25:41;6.43;;;3.80;;
18042;SDS011;9146;48.074;11.968;2023-09-19T00:28:07;6.67;;;4.17;;
18042;SDS011;9146;48.074;11.968;2023-09-19T00:30:35;4.70;;;3.60;;
18042;SDS011;9146;48.074;11.968;2023-09-19T00:33:03;3.13;;;2.83;;
18042;SDS011;9146;48.074;11.968;2023-09-19T00:35:32;5.80;;;3.43;;
18042;SDS011;9146;48.074;11.968;2023-09-19T00:38:02;4.30;;;3.13;;
18042;SDS011;9146;48.074;11.968;2023-09-19T00:40:30;9.03;;;3.60;;
18042;SDS011;9146;48.074;11.968;2023-09-19T00:42:58;4.20;;;3.50;;
18042;SDS011;9146;48.074;11.968;2023-09-19T00:45:26;2.97;;;2.67;;
18042;SDS011;9146;48.074;11.968;2023-09-19T00:47:54;3.77;;;3.40;;
18042;SDS011;9146;48.074;11.968;2023-09-19T00:50:22;5.67;;;3.27;;
18042;SDS011;9146;48.074;11.968;2023-09-19T00:52:54;3.70;;;2.50;;
18042;SDS011;9146;48.074;11.968;2023-09-19T00:55:22;6.47;;;3.40;;
18042;SDS011;9146;48.074;11.968;2023-09-19T00:57:52;3.40;;;3.10;;
18042;SDS011;9146;48.074;11.968;2023-09-19T01:00:21;3.30;;;3.00;;
18042;SDS011;9146;48.074;11.968;2023-09-19T01:02:49;4.20;;;2.53;;
18042;SDS011;9146;48.074;11.968;2023-09-19T01:05:16;2.47;;;2.27;;
18042;SDS011;9146;48.074;11.968;2023-09-19T01:07:43;3.23;;;2.30;;
18042;SDS011;9146;48.074;11.968;2023-09-19T01:10:11;2.70;;;2.50;;
18042;SDS011;9146;48.074;11.968;2023-09-19T01:12:44;3.23;;;3.03;;
18042;SDS011;9146;48.074;11.968;2023-09-19T01:15:19;3.60;;;2.70;;
18042;SDS011;9146;48.074;11.968;2023-09-19T01:17:53;6.27;;;2.83;;
18042;SDS011;9146;48.074;11.968;2023-09-19T01:20:28;3.10;;;2.67;;
18042;SDS011;9146;48.074;11.968;2023-09-19T01:23:05;3.07;;;2.80;;
18042;SDS011;9146;48.074;11.968;2023-09-19T01:25:51;4.13;;;3.17;;
18042;SDS011;9146;48.074;11.968;2023-09-19T01:28:39;3.00;;;2.70;;
18042;SDS011;9146;48.074;11.968;2023-09-19T01:31:20;3.33;;;2.70;;
18042;SDS011;9146;48.074;11.968;2023-09-19T01:33:56;2.97;;;2.63;;
18042;SDS011;9146;48.074;11.968;2023-09-19T01:36:30;7.17;;;3.13;;
18042;SDS011;9146;48.074;11.968;2023-09-19T01:39:00;2.70;;;2.50;;
18042;SDS011;9146;48.074;11.968;2023-09-19T01:41:38;2.40;;;2.20;;
18042;SDS011;9146;48.074;11.968;2023-09-19T01:44:16;3.83;;;2.43;;
18042;SDS011;9146;48.074;11.968;2023-09-19T01:46:50;3.10;;;2.43;;
18042;SDS011;9146;48.074;11.968;2023-09-19T01:49:23;4.60;;;3.17;;
18042;SDS011;9146;48.074;11.968;2023-09-19T01:51:56;3.30;;;2.57;;
18042;SDS011;9146;48.074;11.968;2023-09-19T01:54:31;4.97;;;3.00;;
18042;SDS011;9146;48.074;11.968;2023-09-19T01:57:05;2.80;;;2.60;;
18042;SDS011;9146;48.074;11.968;2023-09-19T01:59:41;2.70;;;2.50;;
18042;SDS011;9146;48.074;11.968;2023-09-19T02:02:15;3.67;;;2.90;;
18042;SDS011;9146;48.074;11.968;2023-09-19T02:04:43;3.03;;;2.43;;
18042;SDS011;9146;48.074;11.968;2023-09-19T02:07:10;2.93;;;2.50;;
18042;SDS011;9146;48.074;11.968;2023-09-19T02:09:39;3.90;;;2.57;;
18042;SDS011;9146;48.074;11.968;2023-09-19T02:12:07;2.87;;;2.67;;
18042;SDS011;9146;48.074;11.968;2023-09-19T02:14:35;2.73;;;2.53;;
18042;SDS011;9146;48.074;11.968;2023-09-19T02:17:03;3.70;;;2.50;;
18042;SDS011;9146;48.074;11.968;2023-09-19T02:19:37;3.03;;;2.53;;
18042;SDS011;9146;48.074;11.968;2023-09-19T02:22:06;4.30;;;2.30;;
18042;SDS011;9146;48.074;11.968;2023-09-19T02:24:35;2.37;;;2.17;;
18042;SDS011;9146;48.074;11.968;2023-09-19T02:27:03;3.43;;;2.03;;
18042;SDS011;9146;48.074;11.968;2023-09-19T02:29:31;3.50;;;2.63;;
18042;SDS011;9146;48.074;11.968;2023-09-19T02:31:59;2.47;;;2.27;;
18042;SDS011;9146;48.074;11.968;2023-09-19T02:34:27;2.00;;;1.90;;
18042;SDS011;9146;48.074;11.968;2023-09-19T02:36:56;2.67;;;2.03;;
18042;SDS011;9146;48.074;11.968;2023-09-19T02:39:23;2.93;;;2.63;;
18042;SDS011;9146;48.074;11.968;2023-09-19T02:41:50;2.33;;;2.13;;
18042;SDS011;9146;48.074;11.968;2023-09-19T02:44:17;2.97;;;2.53;;
18042;SDS011;9146;48.074;11.968;2023-09-19T02:46:48;3.80;;;2.53;;
18042;SDS011;9146;48.074;11.968;2023-09-19T02:49:15;2.37;;;2.17;;
18042;SDS011;9146;48.074;11.968;2023-09-19T02:51:43;2.30;;;2.10;;
18042;SDS011;9146;48.074;11.968;2023-09-19T02:54:12;5.60;;;2.23;;
18042;SDS011;9146;48.074;11.968;2023-09-19T02:56:40;2.03;;;1.93;;
18042;SDS011;9146;48.074;11.968;2023-09-19T02:59:08;2.50;;;2.03;;
18042;SDS011;9146;48.074;11.968;2023-09-19T03:01:35;3.20;;;2.20;;
18042;SDS011;9146;48.074;11.968;2023-09-19T03:04:03;3.20;;;2.40;;
18042;SDS011;9146;48.074;11.968;2023-09-19T03:06:32;4.07;;;1.90;;
18042;SDS011;9146;48.074;11.968;2023-09-19T03:08:59;2.20;;;2.00;;
18042;SDS011;9146;48.074;11.968;2023-09-19T03:11:28;2.30;;;1.77;;
18042;SDS011;9146;48.074;11.968;2023-09-19T03:13:55;4.70;;;2.53;;
18042;SDS011;9146;48.074;11.968;2023-09-19T03:16:23;2.20;;;2.10;;
18042;SDS011;9146;48.074;11.968;2023-09-19T03:18:50;1.83;;;1.73;;
18042;SDS011;9146;48.074;11.968;2023-09-19T03:21:17;2.10;;;1.90;;
18042;SDS011;9146;48.074;11.968;2023-09-19T03:23:44;2.20;;;2.00;;
18042;SDS011;9146;48.074;11.968;2023-09-19T03:26:12;2.00;;;1.90;;
18042;SDS011;9146;48.074;11.968;2023-09-19T03:28:42;1.80;;;1.70;;
18042;SDS011;9146;48.074;11.968;2023-09-19T03:31:11;1.67;;;1.57;;
18042;SDS011;9146;48.074;11.968;2023-09-19T03:33:38;2.47;;;1.80;;
18042;SDS011;9146;48.074;11.968;2023-09-19T03:36:05;2.37;;;1.90;;
18042;SDS011;9146;48.074;11.968;2023-09-19T03:38:32;3.13;;;2.37;;
18042;SDS011;9146;48.074;11.968;2023-09-19T03:41:00;2.37;;;1.37;;
18042;SDS011;9146;48.074;11.968;2023-09-19T03:43:27;2.27;;;1.83;;
18042;SDS011;9146;48.074;11.968;2023-09-19T03:45:57;1.73;;;1.63;;
18042;SDS011;9146;48.074;11.968;2023-09-19T03:48:28;6.77;;;2.00;;
18042;SDS011;9146;48.074;11.968;2023-09-19T03:50:55;2.27;;;2.10;;
18042;SDS011;9146;48.074;11.968;2023-09-19T03:53:22;2.23;;;1.87;;
18042;SDS011;9146;48.074;11.968;2023-09-19T03:55:49;2.53;;;2.33;;
18042;SDS011;9146;48.074;11.968;2023-09-19T03:58:16;2.30;;;2.10;;
18042;SDS011;9146;48.074;11.968;2023-09-19T04:00:45;2.10;;;2.00;;
18042;SDS011;9146;48.074;11.968;2023-09-19T04:03:14;4.10;;;2.50;;
18042;SDS011;9146;48.074;11.968;2023-09-19T04:05:45;3.23;;;2.43;;
18042;SDS011;9146;48.074;11.968;2023-09-19T04:08:12;1.77;;;1.67;;
18042;SDS011;9146;48.074;11.968;2023-09-19T04:10:41;3.00;;;1.90;;
18042;SDS011;9146;48.074;11.968;2023-09-19T04:13:09;2.90;;;2.17;;
18042;SDS011;9146;48.074;11.968;2023-09-19T04:15:36;1.97;;;1.83;;
18042;SDS011;9146;48.074;11.968;2023-09-19T04:18:05;1.93;;;1.83;;
18042;SDS011;9146;48.074;11.968;2023-09-19T04:20:33;4.73;;;2.10;;
18042;SDS011;9146;48.074;11.968;2023-09-19T04:23:00;2.23;;;2.03;;
18042;SDS011;9146;48.074;11.968;2023-09-19T04:25:29;2.70;;;2.30;;
18042;SDS011;9146;48.074;11.968;2023-09-19T04:27:56;3.50;;;2.10;;
18042;SDS011;9146;48.074;11.968;2023-09-19T04:30:24;2.27;;;1.67;;
18042;SDS011;9146;48.074;11.968;2023-09-19T04:32:52;5.10;;;2.60;;
18042;SDS011;9146;48.074;11.968;2023-09-19T04:35:18;2.27;;;2.07;;
18042;SDS011;9146;48.074;11.968;2023-09-19T04:37:47;2.43;;;1.80;;
18042;SDS011;9146;48.074;11.968;2023-09-19T04:40:14;3.63;;;2.27;;
18042;SDS011;9146;48.074;11.968;2023-09-19T04:42:42;3.40;;;1.90;;
18042;SDS011;9146;48.074;11.968;2023-09-19T04:45:10;2.70;;;1.83;;
18042;SDS011;9146;48.074;11.968;2023-09-19T04:47:38;2.07;;;1.97;;
18042;SDS011;9146;48.074;11.968;2023-09-19T04:50:06;2.80;;;2.50;;
18042;SDS011;9146;48.074;11.968;2023-09-19T04:52:38;1.63;;;1.53;;
18042;SDS011;9146;48.074;11.968;2023-09-19T04:55:10;4.83;;;1.83;;
18042;SDS011;9146;48.074;11.968;2023-09-19T04:57:42;2.57;;;2.30;;
18042;SDS011;9146;48.074;11.968;2023-09-19T05:00:11;7.57;;;2.33;;
18042;SDS011;9146;48.074;11.968;2023-09-19T05:02:40;2.30;;;1.93;;
18042;SDS011;9146;48.074;11.968;2023-09-19T05:05:07;2.83;;;1.93;;
18042;SDS011;9146;48.074;11.968;2023-09-19T05:07:36;2.33;;;2.13;;
18042;SDS011;9146;48.074;11.968;2023-09-19T05:10:03;3.80;;;2.20;;
18042;SDS011;9146;48.074;11.968;2023-09-19T05:12:33;2.47;;;2.20;;
18042;SDS011;9146;48.074;11.968;2023-09-19T05:15:01;4.43;;;2.23;;
18042;SDS011;9146;48.074;11.968;2023-09-19T05:17:28;2.67;;;2.10;;
18042;SDS011;9146;48.074;11.968;2023-09-19T05:19:56;2.70;;;2.10;;
18042;SDS011;9146;48.074;11.968;2023-09-19T05:22:26;2.00;;;1.90;;
18042;SDS011;9146;48.074;11.968;2023-09-19T05:24:53;2.20;;;2.10;;
18042;SDS011;9146;48.074;11.968;2023-09-19T05:27:20;2.30;;;1.77;;
18042;SDS011;9146;48.074;11.968;2023-09-19T05:29:48;2.23;;;1.87;;
18042;SDS011;9146;48.074;11.968;2023-09-19T05:32:18;8.97;;;2.07;;
18042;SDS011;9146;48.074;11.968;2023-09-19T05:34:48;1.80;;;1.70;;
18042;SDS011;9146;48.074;11.968;2023-09-19T05:37:18;2.03;;;1.93;;
18042;SDS011;9146;48.074;11.968;2023-09-19T05:39:45;1.90;;;1.80;;
18042;SDS011;9146;48.074;11.968;2023-09-19T05:42:12;1.90;;;1.80;;
18042;SDS011;9146;48.074;11.968;2023-09-19T05:44:39;2.50;;;1.60;;
18042;SDS011;9146;48.074;11.968;2023-09-19T05:47:07;1.80;;;1.70;;
18042;SDS011;9146;48.074;11.968;2023-09-19T05:49:34;1.70;;;1.60;;
18042;SDS011;9146;48.074;11.968;2023-09-19T05:52:04;1.80;;;1.70;;
18042;SDS011;9146;48.074;11.968;2023-09-19T05:54:31;2.97;;;2.10;;
18042;SDS011;9146;48.074;11.968;2023-09-19T05:56:59;3.20;;;2.40;;
18042;SDS011;9146;48.074;11.968;2023-09-19T05:59:26;2.53;;;1.80;;
18042;SDS011;9146;48.074;11.968;2023-09-19T06:01:53;1.50;;;1.40;;
18042;SDS011;9146;48.074;11.968;2023-09-19T06:04:22;1.60;;;1.47;;
18042;SDS011;9146;48.074;11.968;2023-09-19T06:06:50;2.07;;;1.90;;
18042;SDS011;9146;48.074;11.968;2023-09-19T06:09:17;2.33;;;1.77;;
18042;SDS011;9146;48.074;11.968;2023-09-19T06:11:46;2.57;;;2.00;;
18042;SDS011;9146;48.074;11.968;2023-09-19T06:14:13;1.70;;;1.60;;
18042;SDS011;9146;48.074;11.968;2023-09-19T06:16:42;1.90;;;1.80;;
18042;SDS011;9146;48.074;11.968;2023-09-19T06:19:10;1.90;;;1.80;;
18042;SDS011;9146;48.074;11.968;2023-09-19T06:21:38;2.30;;;1.53;;
18042;SDS011;9146;48.074;11.968;2023-09-19T06:24:06;3.30;;;1.70;;
18042;SDS011;9146;48.074;11.968;2023-09-19T06:26:33;2.63;;;1.40;;
18042;SDS011;9146;48.074;11.968;2023-09-19T06:28:59;2.90;;;1.70;;
18042;SDS011;9146;48.074;11.968;2023-09-19T06:31:32;1.10;;;1.10;;
18042;SDS011;9146;48.074;11.968;2023-09-19T06:33:59;3.43;;;1.80;;
18042;SDS011;9146;48.074;11.968;2023-09-19T06:36:26;1.33;;;1.27;;
18042;SDS011;9146;48.074;11.968;2023-09-19T06:38:55;1.97;;;1.70;;
18042;SDS011;9146;48.074;11.968;2023-09-19T06:41:22;2.53;;;1.73;;
18042;SDS011;9146;48.074;11.968;2023-09-19T06:43:50;1.77;;;1.67;;
18042;SDS011;9146;48.074;11.968;2023-09-19T06:46:18;3.30;;;1.90;;
18042;SDS011;9146;48.074;11.968;2023-09-19T06:48:45;4.20;;;1.60;;
18042;SDS011;9146;48.074;11.968;2023-09-19T06:51:14;1.57;;;1.47;;
18042;SDS011;9146;48.074;11.968;2023-09-19T06:53:41;1.90;;;1.80;;
18042;SDS011;9146;48.074;11.968;2023-09-19T06:56:10;1.60;;;1.50;;
18042;SDS011;9146;48.074;11.968;2023-09-19T06:58:37;1.20;;;1.20;;
18042;SDS011;9146;48.074;11.968;2023-09-19T07:01:04;1.17;;;1.17;;
18042;SDS011;9146;48.074;11.968;2023-09-19T07:03:31;1.70;;;1.60;;
18042;SDS011;9146;48.074;11.968;2023-09-19T07:05:58;1.57;;;1.47;;
18042;SDS011;9146;48.074;11.968;2023-09-19T07:08:25;1.90;;;1.70;;
18042;SDS011;9146;48.074;11.968;2023-09-19T07:10:53;1.37;;;1.27;;
18042;SDS011;9146;48.074;11.968;2023-09-19T07:13:23;1.43;;;1.20;;
18042;SDS011;9146;48.074;11.968;2023-09-19T07:15:51;2.73;;;1.40;;
18042;SDS011;9146;48.074;11.968;2023-09-19T07:18:17;1.70;;;1.30;;
18042;SDS011;9146;48.074;11.968;2023-09-19T07:20:45;2.07;;;1.77;;
18042;SDS011;9146;48.074;11.968;2023-09-19T07:23:15;1.33;;;1.20;;
18042;SDS011;9146;48.074;11.968;2023-09-19T07:25:43;1.73;;;1.63;;
18042;SDS011;9146;48.074;11.968;2023-09-19T07:28:11;1.30;;;1.20;;
18042;SDS011;9146;48.074;11.968;2023-09-19T07:30:40;1.20;;;1.10;;
18042;SDS011;9146;48.074;11.968;2023-09-19T07:33:07;2.40;;;1.37;;
18042;SDS011;9146;48.074;11.968;2023-09-19T07:35:36;4.50;;;1.50;;
18042;SDS011;9146;48.074;11.968;2023-09-19T07:38:05;9.33;;;1.60;;
18042;SDS011;9146;48.074;11.968;2023-09-19T07:40:33;2.80;;;1.30;;
18042;SDS011;9146;48.074;11.968;2023-09-19T07:43:00;1.33;;;1.10;;
18042;SDS011;9146;48.074;11.968;2023-09-19T07:45:27;5.53;;;1.43;;
18042;SDS011;9146;48.074;11.968;2023-09-19T07:47:56;1.90;;;1.20;;
18042;SDS011;9146;48.074;11.968;2023-09-19T07:50:25;1.57;;;1.40;;
18042;SDS011;9146;48.074;11.968;2023-09-19T07:52:52;2.20;;;1.30;;
18042;SDS011;9146;48.074;11.968;2023-09-19T07:55:19;1.37;;;1.27;;
18042;SDS011;9146;48.074;11.968;2023-09-19T07:57:49;1.50;;;1.23;;
18042;SDS011;9146;48.074;11.968;2023-09-19T08:00:16;1.30;;;1.10;;
18042;SDS011;9146;48.074;11.968;2023-09-19T08:02:44;4.13;;;1.47;;
18042;SDS011;9146;48.074;11.968;2023-09-19T08:05:14;2.20;;;1.30;;
18042;SDS011;9146;48.074;11.968;2023-09-19T08:07:42;1.60;;;1.50;;
18042;SDS011;9146;48.074;11.968;2023-09-19T08:10:13;3.63;;;1.60;;
18042;SDS011;9146;48.074;11.968;2023-09-19T08:12:43;1.80;;;1.27;;
18042;SDS011;9146;48.074;11.968;2023-09-19T08:15:12;2.03;;;1.30;;
18042;SDS011;9146;48.074;11.968;2023-09-19T08:17:39;1.60;;;1.50;;
18042;SDS011;9146;48.074;11.968;2023-09-19T08:20:07;12.93;;;1.60;;
18042;SDS011;9146;48.074;11.968;2023-09-19T08:22:42;1.50;;;1.40;;
18042;SDS011;9146;48.074;11.968;2023-09-19T08:25:11;1.73;;;1.63;;
18042;SDS011;9146;48.074;11.968;2023-09-19T08:27:39;1.53;;;1.10;;
18042;SDS011;9146;48.074;11.968;2023-09-19T08:30:06;2.03;;;1.20;;
18042;SDS011;9146;48.074;11.968;2023-09-19T08:32:33;2.00;;;1.60;;
18042;SDS011;9146;48.074;11.968;2023-09-19T08:35:00;4.63;;;1.30;;
18042;SDS011;9146;48.074;11.968;2023-09-19T08:37:28;1.23;;;1.13;;
18042;SDS011;9146;48.074;11.968;2023-09-19T08:39:56;1.47;;;1.37;;
18042;SDS011;9146;48.074;11.968;2023-09-19T08:42:23;3.53;;;1.50;;
18042;SDS011;9146;48.074;11.968;2023-09-19T08:44:50;1.90;;;1.10;;
18042;SDS011;9146;48.074;11.968;2023-09-19T08:47:20;1.23;;;1.10;;
18042;SDS011;9146;48.074;11.968;2023-09-19T08:49:58;2.20;;;1.40;;
18042;SDS011;9146;48.074;11.968;2023-09-19T08:52:32;3.13;;;1.27;;
18042;SDS011;9146;48.074;11.968;2023-09-19T08:55:05;1.57;;;1.47;;
18042;SDS011;9146;48.074;11.968;2023-09-19T08:57:35;2.03;;;1.20;;
18042;SDS011;9146;48.074;11.968;2023-09-19T09:00:07;1.10;;;1.10;;
18042;SDS011;9146;48.074;11.968;2023-09-19T09:02:37;1.77;;;1.37;;
18042;SDS011;9146;48.074;11.968;2023-09-19T09:05:06;1.80;;;1.23;;
18042;SDS011;9146;48.074;11.968;2023-09-19T09:07:34;2.43;;;1.50;;
18042;SDS011;9146;48.074;11.968;2023-09-19T09:10:02;2.00;;;1.60;;
18042;SDS011;9146;48.074;11.968;2023-09-19T09:12:32;2.30;;;1.30;;
18042;SDS011;9146;48.074;11.968;2023-09-19T09:15:01;1.97;;;1.20;;
18042;SDS011;9146;48.074;11.968;2023-09-19T09:17:29;1.87;;;1.00;;
18042;SDS011;9146;48.074;11.968;2023-09-19T09:19:56;1.67;;;1.13;;
18042;SDS011;9146;48.074;11.968;2023-09-19T09:22:23;1.47;;;1.37;;
18042;SDS011;9146;48.074;11.968;2023-09-19T09:24:51;1.60;;;1.10;;
18042;SDS011;9146;48.074;11.968;2023-09-19T09:27:22;2.00;;;1.80;;
18042;SDS011;9146;48.074;11.968;2023-09-19T09:29:50;2.60;;;1.63;;
18042;SDS011;9146;48.074;11.968;2023-09-19T09:32:20;1.80;;;1.60;;
18042;SDS011;9146;48.074;11.968;2023-09-19T09:34:48;1.90;;;1.20;;
18042;SDS011;9146;48.074;11.968;2023-09-19T09:37:17;2.10;;;1.23;;
18042;SDS011;9146;48.074;11.968;2023-09-19T09:39:49;1.37;;;1.27;;
18042;SDS011;9146;48.074;11.968;2023-09-19T09:42:32;1.87;;;1.77;;
18042;SDS011;9146;48.074;11.968;2023-09-19T09:45:14;2.07;;;1.40;;
18042;SDS011;9146;48.074;11.968;2023-09-19T09:47:42;4.13;;;1.43;;
18042;SDS011;9146;48.074;11.968;2023-09-19T09:50:23;1.40;;;1.30;;
18042;SDS011;9146;48.074;11.968;2023-09-19T09:52:54;1.83;;;1.23;;
18042;SDS011;9146;48.074;11.968;2023-09-19T09:55:32;1.03;;;1.03;;
18042;SDS011;9146;48.074;11.968;2023-09-19T09:58:29;1.63;;;1.40;;
18042;SDS011;9146;48.074;11.968;2023-09-19T10:00:58;1.50;;;1.40;;
18042;SDS011;9146;48.074;11.968;2023-09-19T10:03:33;3.07;;;1.53;;
18042;SDS011;9146;48.074;11.968;2023-09-19T10:06:04;1.33;;;1.23;;
18042;SDS011;9146;48.074;11.968;2023-09-19T10:09:02;1.23;;;1.07;;
18042;SDS011;9146;48.074;11.968;2023-09-19T10:11:45;1.37;;;1.27;;
18042;SDS011;9146;48.074;11.968;2023-09-19T10:14:20;1.47;;;1.37;;
18042;SDS011;9146;48.074;11.968;2023-09-19T10:16:54;3.93;;;1.50;;
18042;SDS011;9146;48.074;11.968;2023-09-19T10:19:29;2.43;;;1.67;;
18042;SDS011;9146;48.074;11.968;2023-09-19T10:22:00;2.07;;;1.33;;
18042;SDS011;9146;48.074;11.968;2023-09-19T10:24:29;1.30;;;1.10;;
18042;SDS011;9146;48.074;11.968;2023-09-19T10:26:57;1.53;;;1.37;;
18042;SDS011;9146;48.074;11.968;2023-09-19T10:29:27;2.27;;;1.10;;
18042;SDS011;9146;48.074;11.968;2023-09-19T10:32:01;1.60;;;1.50;;
18042;SDS011;9146;48.074;11.968;2023-09-19T10:34:30;1.13;;;1.10;;
18042;SDS011;9146;48.074;11.968;2023-09-19T10:37:00;2.33;;;1.70;;
18042;SDS011;9146;48.074;11.968;2023-09-19T10:39:31;1.43;;;1.33;;
18042;SDS011;9146;48.074;11.968;2023-09-19T10:42:02;2.40;;;1.10;;
18042;SDS011;9146;48.074;11.968;2023-09-19T10:44:32;1.40;;;1.30;;
18042;SDS011;9146;48.074;11.968;2023-09-19T10:47:00;1.10;;;1.10;;
18042;SDS011;9146;48.074;11.968;2023-09-19T10:49:31;1.67;;;1.50;;
18042;SDS011;9146;48.074;11.968;2023-09-19T10:51:58;1.67;;;1.30;;
18042;SDS011;9146;48.074;11.968;2023-09-19T10:54:28;1.70;;;1.60;;
18042;SDS011;9146;48.074;11.968;2023-09-19T10:57:02;4.60;;;1.60;;
18042;SDS011;9146;48.074;11.968;2023-09-19T10:59:30;1.20;;;1.10;;
18042;SDS011;9146;48.074;11.968;2023-09-19T11:02:15;2.20;;;1.97;;
18042;SDS011;9146;48.074;11.968;2023-09-19T11:04:43;1.50;;;1.40;;
18042;SDS011;9146;48.074;11.968;2023-09-19T11:07:13;1.80;;;1.70;;
18042;SDS011;9146;48.074;11.968;2023-09-19T11:09:48;1.80;;;1.60;;
18042;SDS011;9146;48.074;11.968;2023-09-19T11:24:31;3.13;;;1.60;;
18042;SDS011;9146;48.074;11.968;2023-09-19T11:27:09;2.47;;;1.70;;
18042;SDS011;9146;48.074;11.968;2023-09-19T11:29:38;1.50;;;1.40;;
18042;SDS011;9146;48.074;11.968;2023-09-19T11:32:06;1.60;;;1.50;;
18042;SDS011;9146;48.074;11.968;2023-09-19T11:34:46;4.40;;;1.37;;
18042;SDS011;9146;48.074;11.968;2023-09-19T11:40:40;3.90;;;1.40;;
18042;SDS011;9146;48.074;11.968;2023-09-19T11:43:32;1.97;;;1.50;;
18042;SDS011;9146;48.074;11.968;2023-09-19T11:46:01;1.40;;;1.30;;
18042;SDS011;9146;48.074;11.968;2023-09-19T11:48:32;1.40;;;1.27;;
18042;SDS011;9146;48.074;11.968;2023-09-19T11:53:52;1.57;;;1.07;;
18042;SDS011;9146;48.074;11.968;2023-09-19T11:56:20;1.67;;;1.40;;
18042;SDS011;9146;48.074;11.968;2023-09-19T11:58:49;1.97;;;1.50;;
18042;SDS011;9146;48.074;11.968;2023-09-19T12:01:21;1.40;;;1.30;;
18042;SDS011;9146;48.074;11.968;2023-09-19T12:03:52;1.27;;;1.17;;
18042;SDS011;9146;48.074;11.968;2023-09-19T12:06:23;3.80;;;1.70;;
18042;SDS011;9146;48.074;11.968;2023-09-19T12:08:51;3.90;;;1.30;;
18042;SDS011;9146;48.074;11.968;2023-09-19T12:11:19;1.57;;;1.27;;
18042;SDS011;9146;48.074;11.968;2023-09-19T12:13:48;1.57;;;1.47;;
18042;SDS011;9146;48.074;11.968;2023-09-19T12:16:17;1.73;;;1.37;;
18042;SDS011;9146;48.074;11.968;2023-09-19T12:18:47;1.20;;;1.10;;
18042;SDS011;9146;48.074;11.968;2023-09-19T12:21:26;1.47;;;1.00;;
18042;SDS011;9146;48.074;11.968;2023-09-19T12:26:45;1.37;;;1.27;;
18042;SDS011;9146;48.074;11.968;2023-09-19T12:29:18;1.03;;;1.00;;
18042;SDS011;9146;48.074;11.968;2023-09-19T12:31:49;1.17;;;0.90;;
18042;SDS011;9146;48.074;11.968;2023-09-19T12:34:20;1.27;;;1.17;;
18042;SDS011;9146;48.074;11.968;2023-09-19T12:37:04;3.17;;;1.40;;
18042;SDS011;9146;48.074;11.968;2023-09-19T12:39:38;1.93;;;1.20;;
18042;SDS011;9146;48.074;11.968;2023-09-19T12:42:07;1.40;;;1.07;;
18042;SDS011;9146;48.074;11.968;2023-09-19T12:44:42;4.83;;;1.10;;
18042;SDS011;9146;48.074;11.968;2023-09-19T12:47:11;1.20;;;1.20;;
18042;SDS011;9146;48.074;11.968;2023-09-19T12:52:43;1.20;;;1.10;;
18042;SDS011;9146;48.074;11.968;2023-09-19T12:55:20;1.10;;;1.10;;
18042;SDS011;9146;48.074;11.968;2023-09-19T12:57:55;1.63;;;1.13;;
18042;SDS011;9146;48.074;11.968;2023-09-19T13:00:36;1.00;;;1.00;;
18042;SDS011;9146;48.074;11.968;2023-09-19T13:03:17;1.83;;;1.30;;
18042;SDS011;9146;48.074;11.968;2023-09-19T13:05:48;1.03;;;0.93;;
18042;SDS011;9146;48.074;11.968;2023-09-19T13:08:19;1.20;;;1.10;;
18042;SDS011;9146;48.074;11.968;2023-09-19T13:11:05;1.20;;;1.10;;
18042;SDS011;9146;48.074;11.968;2023-09-19T13:13:38;1.10;;;1.10;;
18042;SDS011;9146;48.074;11.968;2023-09-19T13:16:06;1.23;;;1.13;;
18042;SDS011;9146;48.074;11.968;2023-09-19T13:18:43;1.40;;;1.30;;
18042;SDS011;9146;48.074;11.968;2023-09-19T13:21:12;1.37;;;1.27;;
18042;SDS011;9146;48.074;11.968;2023-09-19T13:23:49;3.33;;;1.40;;
18042;SDS011;9146;48.074;11.968;2023-09-19T13:26:17;1.10;;;1.00;;
18042;SDS011;9146;48.074;11.968;2023-09-19T13:28:44;1.33;;;1.23;;
18042;SDS011;9146;48.074;11.968;2023-09-19T13:31:13;1.43;;;1.33;;
18042;SDS011;9146;48.074;11.968;2023-09-19T13:33:43;1.30;;;1.20;;
18042;SDS011;9146;48.074;11.968;2023-09-19T13:36:11;1.10;;;1.00;;
18042;SDS011;9146;48.074;11.968;2023-09-19T13:38:39;1.97;;;1.20;;
18042;SDS011;9146;48.074;11.968;2023-09-19T13:41:09;1.33;;;1.10;;
18042;SDS011;9146;48.074;11.968;2023-09-19T13:43:36;1.23;;;1.10;;
18042;SDS011;9146;48.074;11.968;2023-09-19T13:46:03;3.50;;;1.30;;
18042;SDS011;9146;48.074;11.968;2023-09-19T13:48:32;1.40;;;1.20;;
18042;SDS011;9146;48.074;11.968;2023-09-19T13:51:01;2.10;;;1.40;;
18042;SDS011;9146;48.074;11.968;2023-09-19T13:53:29;3.10;;;1.10;;
18042;SDS011;9146;48.074;11.968;2023-09-19T13:55:56;1.73;;;1.30;;
18042;SDS011;9146;48.074;11.968;2023-09-19T13:58:25;1.30;;;1.20;;
18042;SDS011;9146;48.074;11.968;2023-09-19T14:00:52;3.23;;;1.13;;
18042;SDS011;9146;48.074;11.968;2023-09-19T14:03:23;1.20;;;1.20;;
18042;SDS011;9146;48.074;11.968;2023-09-19T14:05:53;2.00;;;1.40;;
18042;SDS011;9146;48.074;11.968;2023-09-19T14:08:20;1.33;;;1.23;;
18042;SDS011;9146;48.074;11.968;2023-09-19T14:10:48;1.30;;;1.20;;
18042;SDS011;9146;48.074;11.968;2023-09-19T14:13:15;1.40;;;1.30;;
18042;SDS011;9146;48.074;11.968;2023-09-19T14:15:43;1.67;;;1.30;;
18042;SDS011;9146;48.074;11.968;2023-09-19T14:18:10;2.37;;;1.60;;
18042;SDS011;9146;48.074;11.968;2023-09-19T14:20:38;4.60;;;1.33;;
18042;SDS011;9146;48.074;11.968;2023-09-19T14:23:06;1.10;;;1.10;;
18042;SDS011;9146;48.074;11.968;2023-09-19T14:25:34;1.33;;;1.23;;
18042;SDS011;9146;48.074;11.968;2023-09-19T14:28:01;1.40;;;1.30;;
18042;SDS011;9146;48.074;11.968;2023-09-19T14:30:28;1.30;;;1.10;;
18042;SDS011;9146;48.074;11.968;2023-09-19T14:32:57;1.20;;;1.10;;
18042;SDS011;9146;48.074;11.968;2023-09-19T14:35:24;1.10;;;1.10;;
18042;SDS011;9146;48.074;11.968;2023-09-19T14:37:51;3.13;;;1.30;;
18042;SDS011;9146;48.074;11.968;2023-09-19T14:40:18;2.30;;;1.40;;
18042;SDS011;9146;48.074;11.968;2023-09-19T14:42:45;1.33;;;1.23;;
18042;SDS011;9146;48.074;11.968;2023-09-19T14:45:12;2.27;;;1.20;;
18042;SDS011;9146;48.074;11.968;2023-09-19T14:47:41;1.10;;;1.00;;
18042;SDS011;9146;48.074;11.968;2023-09-19T14:50:11;2.20;;;1.30;;
18042;SDS011;9146;48.074;11.968;2023-09-19T14:52:38;2.00;;;1.43;;
18042;SDS011;9146;48.074;11.968;2023-09-19T14:55:06;0.93;;;0.93;;
18042;SDS011;9146;48.074;11.968;2023-09-19T14:57:36;3.20;;;1.27;;
18042;SDS011;9146;48.074;11.968;2023-09-19T15:00:05;2.67;;;2.20;;
18042;SDS011;9146;48.074;11.968;2023-09-19T15:02:37;1.47;;;1.00;;
18042;SDS011;9146;48.074;11.968;2023-09-19T15:05:05;1.10;;;1.10;;
18042;SDS011;9146;48.074;11.968;2023-09-19T15:07:35;1.27;;;1.17;;
18042;SDS011;9146;48.074;11.968;2023-09-19T15:10:03;1.10;;;1.00;;
18042;SDS011;9146;48.074;11.968;2023-09-19T15:12:32;3.10;;;1.30;;
18042;SDS011;9146;48.074;11.968;2023-09-19T15:15:00;3.83;;;1.30;;
18042;SDS011;9146;48.074;11.968;2023-09-19T15:17:28;0.90;;;0.90;;
18042;SDS011;9146;48.074;11.968;2023-09-19T15:19:55;1.70;;;1.30;;
18042;SDS011;9146;48.074;11.968;2023-09-19T15:22:22;2.30;;;1.00;;
18042;SDS011;9146;48.074;11.968;2023-09-19T15:24:51;1.07;;;0.97;;
18042;SDS011;9146;48.074;11.968;2023-09-19T15:27:18;1.00;;;1.00;;